sensor_id;sensor_type;location;lat;lon;timestamp;pressure;altitude;pressure_sealevel;temperature
15544;BMP180;7873;52.230;12.856;2022-07-29T00:00:49;101183.25;;;25.00
15544;BMP180;7873;52.230;12.856;2022-07-29T00:03:16;101189.47;;;25.01
15544;BMP180;7873;52.230;12.856;2022-07-29T00:05:43;101192.34;;;24.99
15544;BMP180;7873;52.230;12.856;2022-07-29T00:08:10;101188.63;;;25.00
15544;BMP180;7873;52.230;12.856;2022-07-29T00:10:36;101198.41;;;25.01
15544;BMP180;7873;52.230;12.856;2022-07-29T00:13:04;101198.41;;;25.01
15544;BMP180;7873;52.230;12.856;2022-07-29T00:15:31;101196.72;;;25.00
15544;BMP180;7873;52.230;12.856;2022-07-29T00:17:58;101195.06;;;24.99
15544;BMP180;7873;52.230;12.856;2022-07-29T00:20:24;101191.50;;;24.99
15544;BMP180;7873;52.230;12.856;2022-07-29T00:22:51;101194.38;;;24.97
15544;BMP180;7873;52.230;12.856;2022-07-29T00:25:18;101193.53;;;24.97
15544;BMP180;7873;52.230;12.856;2022-07-29T00:27:45;101189.16;;;24.96
15544;BMP180;7873;52.230;12.856;2022-07-29T00:30:13;101181.94;;;24.96
15544;BMP180;7873;52.230;12.856;2022-07-29T00:32:40;101179.25;;;24.96
15544;BMP180;7873;52.230;12.856;2022-07-29T00:35:08;101175.53;;;24.97
15544;BMP180;7873;52.230;12.856;2022-07-29T00:37:52;101166.78;;;24.95
15544;BMP180;7873;52.230;12.856;2022-07-29T00:40:19;101173.84;;;24.96
15544;BMP180;7873;52.230;12.856;2022-07-29T00:42:47;101168.47;;;24.96
15544;BMP180;7873;52.230;12.856;2022-07-29T00:45:16;101162.22;;;24.96
15544;BMP180;7873;52.230;12.856;2022-07-29T00:47:43;101161.19;;;24.97
15544;BMP180;7873;52.230;12.856;2022-07-29T00:50:12;101165.78;;;24.96
15544;BMP180;7873;52.230;12.856;2022-07-29T00:52:40;101167.63;;;24.96
15544;BMP180;7873;52.230;12.856;2022-07-29T00:55:10;101162.38;;;24.94
15544;BMP180;7873;52.230;12.856;2022-07-29T00:57:37;101149.94;;;24.93
15544;BMP180;7873;52.230;12.856;2022-07-29T01:00:06;101143.72;;;24.93
15544;BMP180;7873;52.230;12.856;2022-07-29T01:02:34;101140.38;;;24.91
15544;BMP180;7873;52.230;12.856;2022-07-29T01:05:01;101132.47;;;24.89
15544;BMP180;7873;52.230;12.856;2022-07-29T01:07:29;101132.47;;;24.89
15544;BMP180;7873;52.230;12.856;2022-07-29T01:09:57;101120.84;;;24.89
15544;BMP180;7873;52.230;12.856;2022-07-29T01:12:25;101129.09;;;24.87
15544;BMP180;7873;52.230;12.856;2022-07-29T01:14:54;101121.03;;;24.87
15544;BMP180;7873;52.230;12.856;2022-07-29T01:17:26;101117.31;;;24.88
15544;BMP180;7873;52.230;12.856;2022-07-29T01:20:03;101109.22;;;24.88
15544;BMP180;7873;52.230;12.856;2022-07-29T01:22:46;101104.84;;;24.87
15544;BMP180;7873;52.230;12.856;2022-07-29T01:25:30;101102.53;;;24.84
15544;BMP180;7873;52.230;12.856;2022-07-29T01:28:10;101102.53;;;24.84
15544;BMP180;7873;52.230;12.856;2022-07-29T01:30:46;101092.59;;;24.85
15544;BMP180;7873;52.230;12.856;2022-07-29T01:33:16;101089.53;;;24.88
15544;BMP180;7873;52.230;12.856;2022-07-29T01:35:58;101089.34;;;24.89
15544;BMP180;7873;52.230;12.856;2022-07-29T01:38:27;101092.03;;;24.89
15544;BMP180;7873;52.230;12.856;2022-07-29T01:40:59;101089.53;;;24.88
15544;BMP180;7873;52.230;12.856;2022-07-29T01:43:34;101087.69;;;24.88
15544;BMP180;7873;52.230;12.856;2022-07-29T01:46:06;101078.13;;;24.86
15544;BMP180;7873;52.230;12.856;2022-07-29T01:48:39;101087.03;;;24.86
15544;BMP180;7873;52.230;12.856;2022-07-29T01:51:12;101094.44;;;24.84
15544;BMP180;7873;52.230;12.856;2022-07-29T01:53:44;101091.91;;;24.83
15544;BMP180;7873;52.230;12.856;2022-07-29T01:56:13;101101.03;;;24.82
15544;BMP180;7873;52.230;12.856;2022-07-29T01:58:43;101088.41;;;24.82
15544;BMP180;7873;52.230;12.856;2022-07-29T02:01:12;101079.47;;;24.82
15544;BMP180;7873;52.230;12.856;2022-07-29T02:03:43;101083.00;;;24.82
15544;BMP180;7873;52.230;12.856;2022-07-29T02:06:12;101080.31;;;24.82
15544;BMP180;7873;52.230;12.856;2022-07-29T02:08:41;101085.88;;;24.81
15544;BMP180;7873;52.230;12.856;2022-07-29T02:11:08;101073.91;;;24.83
15544;BMP180;7873;52.230;12.856;2022-07-29T02:13:36;101081.16;;;24.83
15544;BMP180;7873;52.230;12.856;2022-07-29T02:16:05;101072.25;;;24.82
15544;BMP180;7873;52.230;12.856;2022-07-29T02:18:36;101080.31;;;24.82
15544;BMP180;7873;52.230;12.856;2022-07-29T02:21:04;101080.31;;;24.82
15544;BMP180;7873;52.230;12.856;2022-07-29T02:23:32;101080.31;;;24.82
15544;BMP180;7873;52.230;12.856;2022-07-29T02:25:59;101075.59;;;24.84
15544;BMP180;7873;52.230;12.856;2022-07-29T02:28:28;101067.66;;;24.83
15544;BMP180;7873;52.230;12.856;2022-07-29T02:30:57;101066.00;;;24.82
15544;BMP180;7873;52.230;12.856;2022-07-29T02:33:25;101055.22;;;24.82
15544;BMP180;7873;52.230;12.856;2022-07-29T02:35:54;101058.13;;;24.80
15544;BMP180;7873;52.230;12.856;2022-07-29T02:38:23;101059.13;;;24.79
15544;BMP180;7873;52.230;12.856;2022-07-29T02:41:11;101063.69;;;24.79
15544;BMP180;7873;52.230;12.856;2022-07-29T02:43:39;101060.31;;;24.77
15544;BMP180;7873;52.230;12.856;2022-07-29T02:46:12;101059.50;;;24.76
15544;BMP180;7873;52.230;12.856;2022-07-29T02:51:40;101075.47;;;24.78
15544;BMP180;7873;52.230;12.856;2022-07-29T02:54:08;101063.88;;;24.77
15544;BMP180;7873;52.230;12.856;2022-07-29T02:56:39;101066.56;;;24.77
15544;BMP180;7873;52.230;12.856;2022-07-29T02:59:09;101063.88;;;24.77
15544;BMP180;7873;52.230;12.856;2022-07-29T03:01:39;101063.22;;;24.75
15544;BMP180;7873;52.230;12.856;2022-07-29T03:04:08;101066.72;;;24.76
15544;BMP180;7873;52.230;12.856;2022-07-29T03:06:37;101067.75;;;24.75
15544;BMP180;7873;52.230;12.856;2022-07-29T03:09:04;101066.72;;;24.76
15544;BMP180;7873;52.230;12.856;2022-07-29T03:11:33;101057.81;;;24.75
15544;BMP180;7873;52.230;12.856;2022-07-29T03:14:01;101067.59;;;24.76
15544;BMP180;7873;52.230;12.856;2022-07-29T03:16:28;101058.47;;;24.77
15544;BMP180;7873;52.230;12.856;2022-07-29T03:18:55;101061.53;;;24.74
15544;BMP180;7873;52.230;12.856;2022-07-29T03:21:22;101057.63;;;24.77
15544;BMP180;7873;52.230;12.856;2022-07-29T03:23:50;101054.03;;;24.84
15544;BMP180;7873;52.230;12.856;2022-07-29T03:26:18;101052.72;;;24.80
15544;BMP180;7873;52.230;12.856;2022-07-29T03:28:45;101056.06;;;24.82
15544;BMP180;7873;52.230;12.856;2022-07-29T03:31:12;101054.91;;;24.85
15544;BMP180;7873;52.230;12.856;2022-07-29T03:33:38;101056.38;;;24.87
15544;BMP180;7873;52.230;12.856;2022-07-29T03:36:05;101046.25;;;24.89
15544;BMP180;7873;52.230;12.856;2022-07-29T03:38:33;101048.13;;;24.89
15544;BMP180;7873;52.230;12.856;2022-07-29T03:41:06;101053.13;;;24.92
15544;BMP180;7873;52.230;12.856;2022-07-29T03:43:36;101049.41;;;24.93
15544;BMP180;7873;52.230;12.856;2022-07-29T03:46:05;101049.22;;;24.94
15544;BMP180;7873;52.230;12.856;2022-07-29T03:48:34;101041.16;;;24.94
15544;BMP180;7873;52.230;12.856;2022-07-29T03:51:02;101052.59;;;24.96
15544;BMP180;7873;52.230;12.856;2022-07-29T03:53:29;101051.75;;;24.96
15544;BMP180;7873;52.230;12.856;2022-07-29T03:55:59;101048.88;;;24.97
15544;BMP180;7873;52.230;12.856;2022-07-29T03:58:30;101056.97;;;24.97
15544;BMP180;7873;52.230;12.856;2022-07-29T04:00:57;101044.84;;;24.93
15544;BMP180;7873;52.230;12.856;2022-07-29T04:03:24;101046.38;;;24.96
15544;BMP180;7873;52.230;12.856;2022-07-29T04:05:58;101049.59;;;24.91
15544;BMP180;7873;52.230;12.856;2022-07-29T04:08:25;101052.38;;;24.83
15544;BMP180;7873;52.230;12.856;2022-07-29T04:10:51;101052.53;;;24.82
15544;BMP180;7873;52.230;12.856;2022-07-29T04:13:18;101051.50;;;24.83
15544;BMP180;7873;52.230;12.856;2022-07-29T04:15:46;101060.63;;;24.82
15544;BMP180;7873;52.230;12.856;2022-07-29T04:18:13;101061.84;;;24.79
15544;BMP180;7873;52.230;12.856;2022-07-29T04:20:40;101061.84;;;24.79
15544;BMP180;7873;52.230;12.856;2022-07-29T04:23:06;101057.47;;;24.78
15544;BMP180;7873;52.230;12.856;2022-07-29T04:25:36;101057.47;;;24.78
15544;BMP180;7873;52.230;12.856;2022-07-29T04:28:03;101054.94;;;24.77
15544;BMP180;7873;52.230;12.856;2022-07-29T04:30:31;101056.47;;;24.71
15544;BMP180;7873;52.230;12.856;2022-07-29T04:33:00;101066.28;;;24.72
15544;BMP180;7873;52.230;12.856;2022-07-29T04:35:27;101056.31;;;24.73
15544;BMP180;7873;52.230;12.856;2022-07-29T04:37:54;101055.84;;;24.69
15544;BMP180;7873;52.230;12.856;2022-07-29T04:40:20;101060.56;;;24.67
15544;BMP180;7873;52.230;12.856;2022-07-29T04:42:47;101062.25;;;24.68
15544;BMP180;7873;52.230;12.856;2022-07-29T04:45:14;101060.56;;;24.67
15544;BMP180;7873;52.230;12.856;2022-07-29T04:47:40;101068.28;;;24.70
15544;BMP180;7873;52.230;12.856;2022-07-29T04:50:09;101071.53;;;24.66
15544;BMP180;7873;52.230;12.856;2022-07-29T04:52:36;101082.31;;;24.66
15544;BMP180;7873;52.230;12.856;2022-07-29T04:55:04;101068.97;;;24.72
15544;BMP180;7873;52.230;12.856;2022-07-29T04:57:31;101066.56;;;24.77
15544;BMP180;7873;52.230;12.856;2022-07-29T04:59:57;101067.88;;;24.81
15544;BMP180;7873;52.230;12.856;2022-07-29T05:02:24;101072.06;;;24.84
15544;BMP180;7873;52.230;12.856;2022-07-29T05:04:51;101064.81;;;24.84
15544;BMP180;7873;52.230;12.856;2022-07-29T05:07:19;101061.09;;;24.85
15544;BMP180;7873;52.230;12.856;2022-07-29T05:09:45;101060.94;;;24.87
15544;BMP180;7873;52.230;12.856;2022-07-29T05:12:12;101045.59;;;24.87
15544;BMP180;7873;52.230;12.856;2022-07-29T05:14:39;101053.88;;;24.86
15544;BMP180;7873;52.230;12.856;2022-07-29T05:17:05;101050.16;;;24.87
15544;BMP180;7873;52.230;12.856;2022-07-29T05:19:32;101048.66;;;24.84
15544;BMP180;7873;52.230;12.856;2022-07-29T05:21:59;101054.19;;;24.83
15544;BMP180;7873;52.230;12.856;2022-07-29T05:24:27;101056.56;;;24.86
15544;BMP180;7873;52.230;12.856;2022-07-29T05:26:54;101052.84;;;24.87
15544;BMP180;7873;52.230;12.856;2022-07-29T05:29:21;101049.97;;;24.88
15544;BMP180;7873;52.230;12.856;2022-07-29T05:31:47;101052.50;;;24.90
15544;BMP180;7873;52.230;12.856;2022-07-29T05:34:14;101052.28;;;24.91
15544;BMP180;7873;52.230;12.856;2022-07-29T05:36:41;101053.97;;;24.92
15544;BMP180;7873;52.230;12.856;2022-07-29T05:39:07;101054.97;;;24.91
15544;BMP180;7873;52.230;12.856;2022-07-29T05:41:35;101053.13;;;24.92
15544;BMP180;7873;52.230;12.856;2022-07-29T05:44:02;101051.09;;;24.94
15544;BMP180;7873;52.230;12.856;2022-07-29T05:46:29;101053.31;;;24.90
15544;BMP180;7873;52.230;12.856;2022-07-29T05:48:55;101049.59;;;24.91
15544;BMP180;7873;52.230;12.856;2022-07-29T05:51:22;101053.63;;;24.95
15544;BMP180;7873;52.230;12.856;2022-07-29T05:53:49;101054.44;;;24.96
15544;BMP180;7873;52.230;12.856;2022-07-29T05:56:15;101054.63;;;24.94
15544;BMP180;7873;52.230;12.856;2022-07-29T05:58:43;101059.84;;;24.96
15544;BMP180;7873;52.230;12.856;2022-07-29T06:01:10;101054.28;;;24.97
15544;BMP180;7873;52.230;12.856;2022-07-29T06:03:37;101051.59;;;24.97
15544;BMP180;7873;52.230;12.856;2022-07-29T06:06:06;101055.09;;;24.98
15544;BMP180;7873;52.230;12.856;2022-07-29T06:08:33;101054.97;;;24.91
15544;BMP180;7873;52.230;12.856;2022-07-29T06:11:00;101054.91;;;24.85
15544;BMP180;7873;52.230;12.856;2022-07-29T06:13:26;101064.16;;;24.82
15544;BMP180;7873;52.230;12.856;2022-07-29T06:15:54;101059.25;;;24.86
15544;BMP180;7873;52.230;12.856;2022-07-29T06:18:21;101061.75;;;24.87
15544;BMP180;7873;52.230;12.856;2022-07-29T06:20:49;101060.09;;;24.86
15544;BMP180;7873;52.230;12.856;2022-07-29T06:23:16;101060.94;;;24.87
15544;BMP180;7873;52.230;12.856;2022-07-29T06:25:43;101058.69;;;24.90
15544;BMP180;7873;52.230;12.856;2022-07-29T06:28:10;101060.19;;;24.93
15544;BMP180;7873;52.230;12.856;2022-07-29T06:30:37;101060.00;;;24.94
15544;BMP180;7873;52.230;12.856;2022-07-29T06:33:05;101056.66;;;24.92
15544;BMP180;7873;52.230;12.856;2022-07-29T06:35:33;101069.91;;;24.79
15544;BMP180;7873;52.230;12.856;2022-07-29T06:38:00;101061.88;;;24.71
15544;BMP180;7873;52.230;12.856;2022-07-29T06:40:27;101075.00;;;24.74
15544;BMP180;7873;52.230;12.856;2022-07-29T06:43:07;101069.25;;;24.77
15544;BMP180;7873;52.230;12.856;2022-07-29T06:45:34;101065.53;;;24.78
15544;BMP180;7873;52.230;12.856;2022-07-29T06:48:01;101054.56;;;24.80
15544;BMP180;7873;52.230;12.856;2022-07-29T06:50:29;101061.47;;;24.82
15544;BMP180;7873;52.230;12.856;2022-07-29T06:52:56;101070.38;;;24.83
15544;BMP180;7873;52.230;12.856;2022-07-29T06:55:23;101069.38;;;24.84
15544;BMP180;7873;52.230;12.856;2022-07-29T06:57:49;101069.19;;;24.85
15544;BMP180;7873;52.230;12.856;2022-07-29T07:00:16;101070.03;;;24.86
15544;BMP180;7873;52.230;12.856;2022-07-29T07:02:43;101070.69;;;24.88
15544;BMP180;7873;52.230;12.856;2022-07-29T07:05:10;101067.13;;;24.87
15544;BMP180;7873;52.230;12.856;2022-07-29T07:07:38;101069.47;;;24.90
15544;BMP180;7873;52.230;12.856;2022-07-29T07:10:05;101051.63;;;24.89
15544;BMP180;7873;52.230;12.856;2022-07-29T07:12:32;101049.97;;;24.88
15544;BMP180;7873;52.230;12.856;2022-07-29T07:14:59;101042.53;;;24.90
15544;BMP180;7873;52.230;12.856;2022-07-29T07:17:25;101046.44;;;24.88
15544;BMP180;7873;52.230;12.856;2022-07-29T07:19:52;101057.03;;;24.89
15544;BMP180;7873;52.230;12.856;2022-07-29T07:22:19;101053.66;;;24.87
15544;BMP180;7873;52.230;12.856;2022-07-29T07:24:47;101052.00;;;24.86
15544;BMP180;7873;52.230;12.856;2022-07-29T07:27:13;101049.13;;;24.88
15544;BMP180;7873;52.230;12.856;2022-07-29T07:29:40;101042.72;;;24.89
15544;BMP180;7873;52.230;12.856;2022-07-29T07:32:07;101050.81;;;24.89
15544;BMP180;7873;52.230;12.856;2022-07-29T07:34:34;101051.63;;;24.89
15544;BMP180;7873;52.230;12.856;2022-07-29T07:37:00;101044.78;;;24.87
15544;BMP180;7873;52.230;12.856;2022-07-29T07:39:27;101056.19;;;24.89
15544;BMP180;7873;52.230;12.856;2022-07-29T07:41:55;101053.66;;;24.87
15544;BMP180;7873;52.230;12.856;2022-07-29T07:44:22;101049.13;;;24.88
15544;BMP180;7873;52.230;12.856;2022-07-29T07:46:48;101052.84;;;24.87
15544;BMP180;7873;52.230;12.856;2022-07-29T07:49:15;101055.53;;;24.87
15544;BMP180;7873;52.230;12.856;2022-07-29T07:51:42;101053.03;;;24.85
15544;BMP180;7873;52.230;12.856;2022-07-29T07:54:08;101049.31;;;24.86
15544;BMP180;7873;52.230;12.856;2022-07-29T07:56:35;101056.56;;;24.86
15544;BMP180;7873;52.230;12.856;2022-07-29T07:59:03;101055.72;;;24.85
15544;BMP180;7873;52.230;12.856;2022-07-29T08:01:30;101051.34;;;24.84
15544;BMP180;7873;52.230;12.856;2022-07-29T08:03:56;101050.16;;;24.87
15544;BMP180;7873;52.230;12.856;2022-07-29T08:06:23;101044.94;;;24.85
15544;BMP180;7873;52.230;12.856;2022-07-29T08:08:50;101042.25;;;24.85
15544;BMP180;7873;52.230;12.856;2022-07-29T08:11:17;101040.56;;;24.84
15544;BMP180;7873;52.230;12.856;2022-07-29T08:13:44;101034.41;;;24.76
15544;BMP180;7873;52.230;12.856;2022-07-29T08:16:13;101034.25;;;24.77
15544;BMP180;7873;52.230;12.856;2022-07-29T08:18:42;101028.84;;;24.77
15544;BMP180;7873;52.230;12.856;2022-07-29T08:21:09;101031.19;;;24.80
15544;BMP180;7873;52.230;12.856;2022-07-29T08:23:35;101027.84;;;24.78
15544;BMP180;7873;52.230;12.856;2022-07-29T08:26:05;101024.28;;;24.78
15544;BMP180;7873;52.230;12.856;2022-07-29T08:28:36;101018.72;;;24.57
15544;BMP180;7873;52.230;12.856;2022-07-29T08:31:03;101034.34;;;24.39
15544;BMP180;7873;52.230;12.856;2022-07-29T08:33:31;101033.69;;;24.37
15544;BMP180;7873;52.230;12.856;2022-07-29T08:35:58;101033.00;;;24.35
15544;BMP180;7873;52.230;12.856;2022-07-29T08:38:25;101025.78;;;24.35
15544;BMP180;7873;52.230;12.856;2022-07-29T08:40:52;101028.53;;;24.27
15544;BMP180;7873;52.230;12.856;2022-07-29T08:43:19;101027.25;;;24.15
15544;BMP180;7873;52.230;12.856;2022-07-29T08:45:47;101023.84;;;24.21
15544;BMP180;7873;52.230;12.856;2022-07-29T08:48:15;101026.13;;;24.32
15544;BMP180;7873;52.230;12.856;2022-07-29T08:50:44;101028.88;;;24.47
15544;BMP180;7873;52.230;12.856;2022-07-29T08:53:12;101027.19;;;24.54
15544;BMP180;7873;52.230;12.856;2022-07-29T08:55:40;101014.31;;;24.64
15544;BMP180;7873;52.230;12.856;2022-07-29T08:58:08;101016.94;;;24.72
15544;BMP180;7873;52.230;12.856;2022-07-29T09:00:36;101018.41;;;24.60
15544;BMP180;7873;52.230;12.856;2022-07-29T09:03:04;101015.16;;;24.64
15544;BMP180;7873;52.230;12.856;2022-07-29T09:05:31;101017.78;;;24.72
15544;BMP180;7873;52.230;12.856;2022-07-29T09:08:00;101015.44;;;24.69
15544;BMP180;7873;52.230;12.856;2022-07-29T09:10:28;101015.09;;;24.72
15544;BMP180;7873;52.230;12.856;2022-07-29T09:12:55;101004.50;;;24.71
15544;BMP180;7873;52.230;12.856;2022-07-29T09:15:22;101009.34;;;24.75
15544;BMP180;7873;52.230;12.856;2022-07-29T09:17:49;101009.34;;;24.75
15544;BMP180;7873;52.230;12.856;2022-07-29T09:20:17;101004.31;;;24.72
15544;BMP180;7873;52.230;12.856;2022-07-29T09:22:44;101012.94;;;24.68
15544;BMP180;7873;52.230;12.856;2022-07-29T09:25:31;101004.00;;;24.67
15544;BMP180;7873;52.230;12.856;2022-07-29T09:28:06;100997.81;;;24.67
15544;BMP180;7873;52.230;12.856;2022-07-29T09:30:33;101002.81;;;24.70
15544;BMP180;7873;52.230;12.856;2022-07-29T09:33:01;101008.38;;;24.68
15544;BMP180;7873;52.230;12.856;2022-07-29T09:35:29;101001.16;;;24.69
15544;BMP180;7873;52.230;12.856;2022-07-29T09:37:56;100998.94;;;24.72
15544;BMP180;7873;52.230;12.856;2022-07-29T09:40:26;100995.56;;;24.70
15544;BMP180;7873;52.230;12.856;2022-07-29T09:42:54;100985.63;;;24.71
15544;BMP180;7873;52.230;12.856;2022-07-29T09:45:29;100990.53;;;24.67
15544;BMP180;7873;52.230;12.856;2022-07-29T09:47:58;100992.06;;;24.70
15544;BMP180;7873;52.230;12.856;2022-07-29T09:50:38;100983.31;;;24.68
15544;BMP180;7873;52.230;12.856;2022-07-29T09:53:06;100988.69;;;24.68
15544;BMP180;7873;52.230;12.856;2022-07-29T09:55:47;100981.28;;;24.70
15544;BMP180;7873;52.230;12.856;2022-07-29T09:58:15;100985.47;;;24.72
15544;BMP180;7873;52.230;12.856;2022-07-29T10:00:43;100969.47;;;24.71
15544;BMP180;7873;52.230;12.856;2022-07-29T10:03:10;100980.78;;;24.66
15544;BMP180;7873;52.230;12.856;2022-07-29T10:05:38;100982.47;;;24.67
15544;BMP180;7873;52.230;12.856;2022-07-29T10:08:05;100985.00;;;24.69
15544;BMP180;7873;52.230;12.856;2022-07-29T10:10:34;100976.38;;;24.73
15544;BMP180;7873;52.230;12.856;2022-07-29T10:13:04;100976.19;;;24.75
15544;BMP180;7873;52.230;12.856;2022-07-29T10:15:32;100971.28;;;24.78
15544;BMP180;7873;52.230;12.856;2022-07-29T10:18:02;100973.75;;;24.80
15544;BMP180;7873;52.230;12.856;2022-07-29T10:20:29;100966.91;;;24.77
15544;BMP180;7873;52.230;12.856;2022-07-29T10:22:56;100956.94;;;24.78
15544;BMP180;7873;52.230;12.856;2022-07-29T10:25:24;100960.13;;;24.81
15544;BMP180;7873;52.230;12.856;2022-07-29T10:27:51;100953.44;;;24.77
15544;BMP180;7873;52.230;12.856;2022-07-29T10:30:21;100972.28;;;24.77
15544;BMP180;7873;52.230;12.856;2022-07-29T10:33:06;100955.38;;;24.83
15544;BMP180;7873;52.230;12.856;2022-07-29T10:35:44;100944.44;;;24.85
15544;BMP180;7873;52.230;12.856;2022-07-29T10:38:45;100957.91;;;24.85
15544;BMP180;7873;52.230;12.856;2022-07-29T10:41:36;100947.13;;;24.85
15544;BMP180;7873;52.230;12.856;2022-07-29T10:44:09;100951.66;;;24.84
15544;BMP180;7873;52.230;12.856;2022-07-29T10:46:40;100946.94;;;24.86
15544;BMP180;7873;52.230;12.856;2022-07-29T10:49:09;100933.28;;;24.88
15544;BMP180;7873;52.230;12.856;2022-07-29T10:51:59;100943.69;;;24.91
15544;BMP180;7873;52.230;12.856;2022-07-29T10:54:48;100941.38;;;24.88
15544;BMP180;7873;52.230;12.856;2022-07-29T10:57:22;100932.38;;;24.95
15544;BMP180;7873;52.230;12.856;2022-07-29T11:00:26;100931.16;;;24.98
15544;BMP180;7873;52.230;12.856;2022-07-29T11:02:56;100933.84;;;24.98
15544;BMP180;7873;52.230;12.856;2022-07-29T11:05:23;100930.41;;;25.04
15544;BMP180;7873;52.230;12.856;2022-07-29T11:08:20;100928.28;;;25.14
15544;BMP180;7873;52.230;12.856;2022-07-29T11:10:49;100928.59;;;25.19
15544;BMP180;7873;52.230;12.856;2022-07-29T11:13:49;100929.88;;;25.23
15544;BMP180;7873;52.230;12.856;2022-07-29T11:16:18;100937.44;;;25.27
15544;BMP180;7873;52.230;12.856;2022-07-29T11:19:20;100939.28;;;25.27
15544;BMP180;7873;52.230;12.856;2022-07-29T11:21:47;100943.00;;;25.26
15544;BMP180;7873;52.230;12.856;2022-07-29T11:24:17;100944.88;;;25.25
15544;BMP180;7873;52.230;12.856;2022-07-29T11:26:44;100944.00;;;25.25
15544;BMP180;7873;52.230;12.856;2022-07-29T11:29:19;100950.81;;;25.21
15544;BMP180;7873;52.230;12.856;2022-07-29T11:31:49;100951.19;;;25.18
15544;BMP180;7873;52.230;12.856;2022-07-29T11:34:25;100944.63;;;25.12
15544;BMP180;7873;52.230;12.856;2022-07-29T11:37:15;100940.25;;;25.11
15544;BMP180;7873;52.230;12.856;2022-07-29T11:39:43;100944.19;;;25.09
15544;BMP180;7873;52.230;12.856;2022-07-29T11:42:37;100935.78;;;25.04
15544;BMP180;7873;52.230;12.856;2022-07-29T11:45:05;100939.88;;;25.00
15544;BMP180;7873;52.230;12.856;2022-07-29T11:47:34;100947.81;;;25.01
15544;BMP180;7873;52.230;12.856;2022-07-29T11:50:04;100934.59;;;25.06
15544;BMP180;7873;52.230;12.856;2022-07-29T11:52:32;100937.13;;;25.08
15544;BMP180;7873;52.230;12.856;2022-07-29T11:55:02;100929.38;;;25.05
15544;BMP180;7873;52.230;12.856;2022-07-29T11:57:29;100930.78;;;25.01
15544;BMP180;7873;52.230;12.856;2022-07-29T11:59:57;100922.16;;;25.05
15544;BMP180;7873;52.230;12.856;2022-07-29T12:02:24;100914.25;;;25.04
15544;BMP180;7873;52.230;12.856;2022-07-29T12:04:52;100917.41;;;25.07
15544;BMP180;7873;52.230;12.856;2022-07-29T12:07:26;100927.81;;;25.10
15544;BMP180;7873;52.230;12.856;2022-07-29T12:09:53;100916.88;;;25.12
15544;BMP180;7873;52.230;12.856;2022-07-29T12:12:20;100918.31;;;25.14
15544;BMP180;7873;52.230;12.856;2022-07-29T12:14:47;100915.63;;;25.14
15544;BMP180;7873;52.230;12.856;2022-07-29T12:17:25;100909.72;;;25.19
15544;BMP180;7873;52.230;12.856;2022-07-29T12:19:52;100910.88;;;25.16
15544;BMP180;7873;52.230;12.856;2022-07-29T12:22:26;100892.88;;;25.17
15544;BMP180;7873;52.230;12.856;2022-07-29T12:24:53;100889.72;;;25.13
15544;BMP180;7873;52.230;12.856;2022-07-29T12:27:20;100904.84;;;25.14
15544;BMP180;7873;52.230;12.856;2022-07-29T12:29:55;100900.50;;;25.13
15544;BMP180;7873;52.230;12.856;2022-07-29T12:32:22;100894.59;;;25.18
15544;BMP180;7873;52.230;12.856;2022-07-29T12:34:49;100895.75;;;25.15
15544;BMP180;7873;52.230;12.856;2022-07-29T12:37:16;100887.16;;;25.20
15544;BMP180;7873;52.230;12.856;2022-07-29T12:39:44;100887.16;;;25.20
15544;BMP180;7873;52.230;12.856;2022-07-29T12:42:12;100883.63;;;25.19
15544;BMP180;7873;52.230;12.856;2022-07-29T12:44:46;100875.34;;;25.21
15544;BMP180;7873;52.230;12.856;2022-07-29T12:47:13;100878.88;;;25.21
15544;BMP180;7873;52.230;12.856;2022-07-29T12:49:40;100875.34;;;25.21
15544;BMP180;7873;52.230;12.856;2022-07-29T12:52:23;100871.81;;;25.20
15544;BMP180;7873;52.230;12.856;2022-07-29T12:54:51;100881.19;;;25.24
15544;BMP180;7873;52.230;12.856;2022-07-29T12:57:18;100868.38;;;25.26
15544;BMP180;7873;52.230;12.856;2022-07-29T12:59:45;100866.31;;;25.28
15544;BMP180;7873;52.230;12.856;2022-07-29T13:02:20;100872.34;;;25.30
15544;BMP180;7873;52.230;12.856;2022-07-29T13:04:55;100866.31;;;25.28
15544;BMP180;7873;52.230;12.856;2022-07-29T13:07:24;100870.41;;;25.24
15544;BMP180;7873;52.230;12.856;2022-07-29T13:09:53;100876.34;;;25.20
15544;BMP180;7873;52.230;12.856;2022-07-29T13:12:20;100866.44;;;25.20
15544;BMP180;7873;52.230;12.856;2022-07-29T13:14:48;100857.50;;;25.20
15544;BMP180;7873;52.230;12.856;2022-07-29T13:17:17;100854.81;;;25.20
15544;BMP180;7873;52.230;12.856;2022-07-29T13:19:45;100858.34;;;25.20
15544;BMP180;7873;52.230;12.856;2022-07-29T13:22:14;100853.13;;;25.19
15544;BMP180;7873;52.230;12.856;2022-07-29T13:24:48;100849.41;;;25.20
15544;BMP180;7873;52.230;12.856;2022-07-29T13:27:17;100844.88;;;25.20
15544;BMP180;7873;52.230;12.856;2022-07-29T13:29:45;100853.59;;;25.22
15544;BMP180;7873;52.230;12.856;2022-07-29T13:32:12;100843.00;;;25.21
15544;BMP180;7873;52.230;12.856;2022-07-29T13:34:39;100840.13;;;25.22
15544;BMP180;7873;52.230;12.856;2022-07-29T13:37:06;100837.03;;;25.25
15544;BMP180;7873;52.230;12.856;2022-07-29T13:39:33;100841.59;;;25.25
15544;BMP180;7873;52.230;12.856;2022-07-29T13:42:00;100845.94;;;25.26
15544;BMP180;7873;52.230;12.856;2022-07-29T13:44:28;100856.94;;;25.24
15544;BMP180;7873;52.230;12.856;2022-07-29T13:46:55;100849.13;;;25.29
15544;BMP180;7873;52.230;12.856;2022-07-29T13:49:24;100845.56;;;25.29
15544;BMP180;7873;52.230;12.856;2022-07-29T13:51:51;100842.53;;;25.32
15544;BMP180;7873;52.230;12.856;2022-07-29T13:54:17;100837.94;;;25.32
15544;BMP180;7873;52.230;12.856;2022-07-29T13:56:44;100830.88;;;25.31
15544;BMP180;7873;52.230;12.856;2022-07-29T13:59:11;100829.47;;;25.35
15544;BMP180;7873;52.230;12.856;2022-07-29T14:01:39;100837.19;;;25.38
15544;BMP180;7873;52.230;12.856;2022-07-29T14:04:08;100831.44;;;25.41
15544;BMP180;7873;52.230;12.856;2022-07-29T14:06:34;100830.22;;;25.44
15544;BMP180;7873;52.230;12.856;2022-07-29T14:09:01;100828.34;;;25.44
15544;BMP180;7873;52.230;12.856;2022-07-29T14:11:31;100824.88;;;25.50